Time;durP1;ratioP1;P1;durP2;ratioP2;P2;SDS_P1;SDS_P2;PMS_P1;PMS_P2;Temp;Humidity;BMP_temperature;BMP_pressure;BME280_temperature;BME280_humidity;BME280_pressure;Samples;Min_cycle;Max_cycle;Signal;HPM_P1;HPM_P2
2021/03/06 00:01:08;;;;;;;3.47;1.27;;;;;6.80;103277.00;;;;5089613;28;20190;-77
2021/03/06 00:03:35;;;;;;;4.18;1.30;;;;;6.80;103275.00;;;;5090950;28;20285;-77
2021/03/06 00:06:02;;;;;;;3.20;1.02;;;;;6.80;103278.00;;;;5090482;28;20202;-77
2021/03/06 00:08:28;;;;;;;4.28;1.20;;;;;6.80;103273.00;;;;5090578;28;20195;-78
2021/03/06 00:10:56;;;;;;;1.55;0.80;;;;;6.80;103272.00;;;;5089799;28;20198;-77
2021/03/06 00:13:23;;;;;;;2.35;0.90;;;;;6.80;103274.00;;;;5070642;28;20212;-77
2021/03/06 00:15:50;;;;;;;1.35;0.73;;;;;6.80;103274.00;;;;5070224;28;20668;-77
2021/03/06 00:18:18;;;;;;;3.38;0.75;;;;;6.80;103283.00;;;;5088981;28;20194;-77
2021/03/06 00:20:44;;;;;;;3.58;1.42;;;;;6.80;103274.00;;;;5090172;28;20259;-76
2021/03/06 00:23:11;;;;;;;2.25;1.08;;;;;6.80;103280.00;;;;5089283;28;20560;-77
2021/03/06 00:25:38;;;;;;;3.08;1.08;;;;;6.80;103273.00;;;;5088864;28;20202;-77
2021/03/06 00:28:05;;;;;;;1.83;1.08;;;;;6.80;103271.00;;;;5088801;28;20209;-77
2021/03/06 00:30:31;;;;;;;3.10;0.63;;;;;6.80;103282.00;;;;5089858;28;20201;-76
2021/03/06 00:32:58;;;;;;;1.75;0.85;;;;;6.80;103283.00;;;;5088614;28;20193;-77
2021/03/06 00:35:26;;;;;;;5.88;0.88;;;;;6.80;103272.00;;;;5090280;28;20225;-77
2021/03/06 00:37:52;;;;;;;2.55;0.70;;;;;6.80;103278.00;;;;5088947;28;20206;-77
2021/03/06 00:40:19;;;;;;;1.38;0.80;;;;;6.80;103281.00;;;;5089085;28;21147;-77
2021/03/06 00:42:46;;;;;;;3.95;1.15;;;;;6.80;103280.00;;;;5088932;28;20578;-77
2021/03/06 00:45:13;;;;;;;1.65;0.93;;;;;6.80;103285.00;;;;5090278;28;20202;-76
2021/03/06 00:47:40;;;;;;;3.80;1.00;;;;;6.80;103289.00;;;;5087514;28;20228;-77
2021/03/06 00:50:11;;;;;;;1.60;1.20;;;;;6.80;103272.00;;;;5089594;28;20330;-76
2021/03/06 00:52:38;;;;;;;4.65;1.42;;;;;6.80;103279.00;;;;5088372;28;20210;-77
2021/03/06 00:55:06;;;;;;;3.15;1.25;;;;;6.80;103279.00;;;;5088916;28;20214;-77
2021/03/06 00:57:33;;;;;;;3.13;1.02;;;;;6.80;103283.00;;;;5089957;28;20255;-76
2021/03/06 00:59:59;;;;;;;4.18;1.35;;;;;6.80;103275.00;;;;5082915;28;20206;-77
2021/03/06 01:02:26;;;;;;;2.95;1.15;;;;;6.80;103276.00;;;;5087621;28;20679;-76
2021/03/06 01:04:53;;;;;;;2.55;1.38;;;;;6.80;103282.00;;;;5089310;28;21059;-76
2021/03/06 01:07:20;;;;;;;3.22;1.20;;;;;6.80;103280.00;;;;5089412;28;20202;-76
2021/03/06 01:09:47;;;;;;;3.28;1.08;;;;;6.80;103279.00;;;;5088600;28;20622;-76
2021/03/06 01:12:14;;;;;;;3.20;1.77;;;;;6.80;103277.00;;;;5089096;28;20203;-76
2021/03/06 01:14:41;;;;;;;4.10;1.00;;;;;6.80;103280.00;;;;5088331;28;20226;-77
2021/03/06 01:17:07;;;;;;;3.83;1.10;;;;;6.80;103268.00;;;;5089134;28;20206;-76
2021/03/06 01:19:34;;;;;;;3.03;1.08;;;;;6.80;103274.00;;;;5088468;28;20656;-76
2021/03/06 01:22:01;;;;;;;2.08;1.10;;;;;6.70;103268.00;;;;5088991;28;20202;-76
2021/03/06 01:24:27;;;;;;;5.95;1.50;;;;;6.70;103268.00;;;;5082743;28;20219;-76
2021/03/06 01:26:55;;;;;;;3.65;1.20;;;;;6.70;103276.00;;;;5088638;28;20747;-76
2021/03/06 01:29:22;;;;;;;2.17;1.30;;;;;6.70;103273.00;;;;5089208;28;20206;-76
2021/03/06 01:31:48;;;;;;;3.92;1.40;;;;;6.70;103270.00;;;;5087133;28;20606;-76
2021/03/06 01:34:15;;;;;;;4.63;1.08;;;;;6.70;103272.00;;;;5068653;28;20226;-76
2021/03/06 01:36:42;;;;;;;2.08;0.70;;;;;6.70;103269.00;;;;5085398;28;20205;-77
2021/03/06 01:39:09;;;;;;;2.63;1.05;;;;;6.60;103261.00;;;;5088214;28;20198;-76
2021/03/06 01:41:36;;;;;;;4.15;1.25;;;;;6.60;103254.00;;;;5088100;28;20197;-77
2021/03/06 01:44:04;;;;;;;2.63;1.15;;;;;6.50;103260.00;;;;5088442;28;20213;-76
2021/03/06 01:46:31;;;;;;;2.95;1.08;;;;;6.50;103262.00;;;;5087224;28;20218;-76
2021/03/06 01:48:58;;;;;;;2.08;0.98;;;;;6.50;103263.00;;;;5088587;28;20273;-76
2021/03/06 01:51:25;;;;;;;2.47;0.93;;;;;6.40;103257.00;;;;5087481;28;20240;-76
2021/03/06 01:53:52;;;;;;;4.32;1.00;;;;;6.30;103258.00;;;;5087864;28;20197;-77
2021/03/06 01:56:19;;;;;;;3.55;1.20;;;;;6.30;103257.00;;;;5087923;28;20190;-76
2021/03/06 01:58:46;;;;;;;3.58;0.93;;;;;6.30;103250.00;;;;5088376;28;20301;-76
2021/03/06 02:01:13;;;;;;;2.85;1.10;;;;;6.20;103247.00;;;;5087626;28;20205;-77
2021/03/06 02:03:40;;;;;;;2.00;0.95;;;;;6.20;103243.00;;;;5086316;28;20209;-76
2021/03/06 02:06:07;;;;;;;3.85;1.20;;;;;6.10;103245.00;;;;5088910;28;20202;-77
2021/03/06 02:08:34;;;;;;;3.45;0.85;;;;;6.10;103247.00;;;;5088399;28;20201;-77
2021/03/06 02:11:01;;;;;;;3.78;1.35;;;;;6.10;103238.00;;;;5086749;28;20199;-77
2021/03/06 02:13:51;;;;;;;2.67;1.40;;;;;6.00;103248.00;;;;5087371;28;20251;-77
2021/03/06 02:16:27;;;;;;;3.42;1.10;;;;;6.00;103248.00;;;;5087854;28;20625;-76
2021/03/06 02:18:58;;;;;;;3.60;1.33;;;;;6.00;103251.00;;;;5087533;28;20255;-77
2021/03/06 02:21:42;;;;;;;2.10;1.20;;;;;5.90;103244.00;;;;5088350;28;20205;-76
2021/03/06 02:24:36;;;;;;;4.28;1.50;;;;;5.90;103243.00;;;;5086740;28;20199;-76
2021/03/06 02:27:20;;;;;;;3.05;0.95;;;;;5.90;103235.00;;;;5088421;28;20191;-76
2021/03/06 02:29:52;;;;;;;2.47;1.25;;;;;5.90;103244.00;;;;5087728;28;20571;-77
2021/03/06 02:32:23;;;;;;;2.28;0.95;;;;;5.90;103243.00;;;;5086981;28;21195;-76
2021/03/06 02:34:55;;;;;;;3.03;1.85;;;;;5.90;103238.00;;;;5087688;28;20221;-76
2021/03/06 02:37:24;;;;;;;1.45;0.65;;;;;6.00;103236.00;;;;5088153;28;20567;-76
2021/03/06 02:39:55;;;;;;;2.05;0.95;;;;;5.90;103241.00;;;;5086760;28;20194;-77
2021/03/06 02:42:25;;;;;;;3.17;1.02;;;;;5.90;103238.00;;;;5087378;28;20214;-77
2021/03/06 02:44:55;;;;;;;2.90;0.82;;;;;5.90;103239.00;;;;5086918;28;20577;-76
2021/03/06 02:47:22;;;;;;;1.95;0.85;;;;;6.00;103227.00;;;;5087957;28;20523;-76
2021/03/06 02:49:53;;;;;;;1.42;0.82;;;;;5.90;103229.00;;;;5086915;28;20198;-76
2021/03/06 02:52:20;;;;;;;3.45;1.10;;;;;5.90;103235.00;;;;5087139;28;20209;-76
2021/03/06 02:54:48;;;;;;;4.63;0.93;;;;;5.90;103231.00;;;;5086844;28;20218;-76
2021/03/06 02:57:41;;;;;;;2.22;0.98;;;;;5.80;103234.00;;;;5086873;28;20218;-76
2021/03/06 03:00:22;;;;;;;2.13;0.85;;;;;5.80;103230.00;;;;5069839;28;20211;-76
2021/03/06 03:03:01;;;;;;;1.83;0.98;;;;;5.70;103226.00;;;;5086911;28;20292;-76
2021/03/06 03:05:33;;;;;;;1.67;1.10;;;;;5.70;103225.00;;;;5070783;28;20213;-76
2021/03/06 03:08:05;;;;;;;3.70;1.08;;;;;5.70;103224.00;;;;5085929;28;20229;-76
2021/03/06 03:10:35;;;;;;;1.80;1.00;;;;;5.70;103221.00;;;;5087537;28;20194;-76
2021/03/06 03:13:09;;;;;;;2.67;1.02;;;;;5.60;103220.00;;;;5067695;28;20206;-76
2021/03/06 03:15:41;;;;;;;1.48;0.80;;;;;5.60;103221.00;;;;5087662;28;20253;-76
2021/03/06 03:18:14;;;;;;;2.10;0.90;;;;;5.60;103218.00;;;;5091987;28;20221;-76
2021/03/06 03:20:47;;;;;;;1.15;0.70;;;;;5.50;103228.00;;;;5090150;28;20574;-76
2021/03/06 03:23:18;;;;;;;2.45;0.93;;;;;5.50;103228.00;;;;5090980;28;20218;-76
2021/03/06 03:25:47;;;;;;;5.28;1.20;;;;;5.50;103221.00;;;;5090231;28;20259;-76
2021/03/06 03:28:15;;;;;;;1.00;0.70;;;;;5.40;103215.00;;;;5091263;28;20194;-75
2021/03/06 03:30:43;;;;;;;0.93;0.60;;;;;5.40;103218.00;;;;5089721;28;20206;-76
2021/03/06 03:33:12;;;;;;;1.25;0.75;;;;;5.40;103212.00;;;;5078894;28;20218;-76
2021/03/06 03:35:40;;;;;;;2.03;1.05;;;;;5.40;103214.00;;;;5085937;28;20279;-75
2021/03/06 03:38:08;;;;;;;3.97;1.00;;;;;5.30;103211.00;;;;5091255;28;20191;-76
2021/03/06 03:40:36;;;;;;;3.85;1.23;;;;;5.30;103211.00;;;;5090186;28;20202;-76
2021/03/06 03:43:05;;;;;;;2.25;0.85;;;;;5.30;103205.00;;;;5090202;28;20632;-75
2021/03/06 03:45:32;;;;;;;2.47;0.70;;;;;5.30;103206.00;;;;5090114;28;20789;-75
2021/03/06 03:48:00;;;;;;;2.13;0.93;;;;;5.20;103210.00;;;;5090602;28;20209;-76
2021/03/06 03:50:27;;;;;;;1.55;0.70;;;;;5.20;103212.00;;;;5079869;28;20191;-76
2021/03/06 03:52:54;;;;;;;3.42;1.10;;;;;5.20;103204.00;;;;5087408;28;20209;-76
2021/03/06 03:55:22;;;;;;;2.53;1.13;;;;;5.20;103214.00;;;;5090117;28;20229;-76
2021/03/06 03:57:49;;;;;;;2.67;0.82;;;;;5.20;103213.00;;;;5090558;28;20216;-76
2021/03/06 04:00:18;;;;;;;1.67;0.80;;;;;5.20;103217.00;;;;5089645;28;20202;-76
2021/03/06 04:02:46;;;;;;;2.72;0.88;;;;;5.10;103223.00;;;;5089507;28;20198;-75
2021/03/06 04:05:14;;;;;;;2.65;1.00;;;;;5.10;103225.00;;;;5090197;28;20293;-76
2021/03/06 04:07:42;;;;;;;1.15;0.70;;;;;5.10;103218.00;;;;5090917;28;20202;-76
2021/03/06 04:10:11;;;;;;;1.65;0.65;;;;;5.10;103209.00;;;;5089634;28;20193;-75
2021/03/06 04:12:38;;;;;;;3.35;0.98;;;;;5.00;103213.00;;;;5090039;28;20202;-75
2021/03/06 04:15:07;;;;;;;5.03;0.68;;;;;5.10;103221.00;;;;5089606;28;20218;-75
2021/03/06 04:17:34;;;;;;;2.33;0.95;;;;;5.00;103228.00;;;;5090311;28;20206;-75
2021/03/06 04:20:01;;;;;;;2.17;0.88;;;;;5.00;103234.00;;;;5090097;28;20202;-75
2021/03/06 04:22:29;;;;;;;2.50;0.77;;;;;5.00;103232.00;;;;5090041;28;20214;-75
2021/03/06 04:24:55;;;;;;;4.60;0.98;;;;;5.00;103232.00;;;;5088992;28;20252;-75
2021/03/06 04:27:22;;;;;;;1.63;0.88;;;;;5.00;103226.00;;;;5089342;28;20240;-75
2021/03/06 04:29:49;;;;;;;1.85;0.82;;;;;5.00;103228.00;;;;5089853;28;20206;-75
2021/03/06 04:32:16;;;;;;;3.17;1.33;;;;;4.90;103235.00;;;;5078100;28;20206;-75
2021/03/06 04:34:43;;;;;;;1.90;0.98;;;;;4.90;103233.00;;;;5069552;28;20311;-75
2021/03/06 04:37:10;;;;;;;2.03;1.10;;;;;4.90;103237.00;;;;5088311;28;20232;-76
2021/03/06 04:39:37;;;;;;;6.32;1.48;;;;;4.90;103236.00;;;;5090713;28;20532;-75
2021/03/06 04:42:04;;;;;;;2.15;1.20;;;;;4.90;103249.00;;;;5089029;28;20409;-75
2021/03/06 04:44:31;;;;;;;2.40;1.08;;;;;4.90;103244.00;;;;5090330;28;20617;-76
2021/03/06 04:46:58;;;;;;;2.22;1.10;;;;;4.90;103237.00;;;;5089703;28;20224;-75
2021/03/06 04:49:25;;;;;;;3.13;1.13;;;;;4.90;103245.00;;;;5089615;28;20225;-75
2021/03/06 04:51:52;;;;;;;3.28;1.00;;;;;4.90;103248.00;;;;5089061;28;21036;-75
2021/03/06 04:54:19;;;;;;;1.75;1.00;;;;;4.90;103248.00;;;;5089867;28;20225;-75
2021/03/06 04:56:47;;;;;;;1.60;1.10;;;;;4.90;103252.00;;;;5089422;28;20668;-75
2021/03/06 04:59:13;;;;;;;2.00;1.15;;;;;4.80;103252.00;;;;5089451;28;20198;-75
2021/03/06 05:01:40;;;;;;;1.92;0.98;;;;;4.80;103258.00;;;;5089243;28;20272;-75
2021/03/06 05:04:07;;;;;;;2.88;0.75;;;;;4.80;103260.00;;;;5089565;28;20198;-75
2021/03/06 05:06:33;;;;;;;1.95;0.75;;;;;4.80;103257.00;;;;5088457;28;20222;-75
2021/03/06 05:09:00;;;;;;;2.35;0.88;;;;;4.80;103265.00;;;;5089441;28;20194;-75
2021/03/06 05:11:27;;;;;;;3.33;1.00;;;;;4.80;103266.00;;;;5089686;28;20194;-75
2021/03/06 05:13:54;;;;;;;2.33;1.58;;;;;4.80;103264.00;;;;5078835;28;20202;-75
2021/03/06 05:16:21;;;;;;;2.85;1.23;;;;;4.80;103259.00;;;;5089325;28;20194;-75
2021/03/06 05:18:48;;;;;;;1.88;1.05;;;;;4.70;103260.00;;;;5089545;28;20194;-75
2021/03/06 05:21:15;;;;;;;1.92;1.17;;;;;4.80;103263.00;;;;5088490;28;20713;-75
2021/03/06 05:23:41;;;;;;;2.10;1.05;;;;;4.70;103265.00;;;;5088681;28;20214;-75
2021/03/06 05:26:09;;;;;;;1.98;1.10;;;;;4.70;103270.00;;;;5087985;28;20186;-75
2021/03/06 05:28:36;;;;;;;5.43;1.88;;;;;4.70;103259.00;;;;5089056;28;20194;-75
2021/03/06 05:31:04;;;;;;;5.97;1.30;;;;;4.70;103281.00;;;;5085923;28;22486;-74
2021/03/06 05:33:30;;;;;;;4.18;1.42;;;;;4.70;103268.00;;;;5084563;28;20194;-75
2021/03/06 05:35:57;;;;;;;3.47;1.50;;;;;4.70;103269.00;;;;5088171;28;20222;-75
2021/03/06 05:38:24;;;;;;;3.72;1.40;;;;;4.70;103270.00;;;;5089023;28;20194;-75
2021/03/06 05:40:51;;;;;;;2.53;1.17;;;;;4.70;103273.00;;;;5088125;28;20608;-75
2021/03/06 05:43:17;;;;;;;2.78;1.17;;;;;4.60;103266.00;;;;5080669;28;20205;-75
2021/03/06 05:45:46;;;;;;;2.58;1.27;;;;;4.60;103268.00;;;;5089125;28;20271;-74
2021/03/06 05:48:16;;;;;;;4.18;1.65;;;;;4.60;103280.00;;;;5088429;28;20244;-74
2021/03/06 05:50:43;;;;;;;3.42;2.10;;;;;4.60;103272.00;;;;5087256;28;20639;-75
2021/03/06 05:53:13;;;;;;;2.55;1.30;;;;;4.60;103267.00;;;;5087901;28;20888;-75
2021/03/06 05:55:42;;;;;;;3.17;1.60;;;;;4.60;103266.00;;;;5083578;28;20529;-75
2021/03/06 05:58:10;;;;;;;2.15;1.27;;;;;4.60;103277.00;;;;5082037;28;20195;-76
2021/03/06 06:00:40;;;;;;;1.83;1.02;;;;;4.60;103275.00;;;;5080349;28;20209;-76
2021/03/06 06:03:08;;;;;;;3.38;1.60;;;;;4.60;103277.00;;;;5087696;28;20571;-76
2021/03/06 06:05:35;;;;;;;3.33;1.42;;;;;4.60;103277.00;;;;5088696;28;20256;-76
2021/03/06 06:08:05;;;;;;;2.00;1.08;;;;;4.60;103288.00;;;;5073419;28;20202;-76
2021/03/06 06:10:32;;;;;;;2.55;1.45;;;;;4.60;103275.00;;;;5083649;28;20667;-76
2021/03/06 06:13:00;;;;;;;3.65;1.20;;;;;4.60;103280.00;;;;5088095;28;20190;-75
2021/03/06 06:15:27;;;;;;;2.97;1.80;;;;;4.60;103282.00;;;;5085997;28;20202;-75
2021/03/06 06:17:54;;;;;;;3.22;1.45;;;;;4.60;103275.00;;;;5086036;28;20285;-76
2021/03/06 06:20:23;;;;;;;3.53;1.23;;;;;4.60;103278.00;;;;5086795;28;20194;-76
2021/03/06 06:23:09;;;;;;;1.90;1.25;;;;;4.50;103279.00;;;;5081444;28;20245;-77
2021/03/06 06:25:36;;;;;;;3.08;1.45;;;;;4.60;103287.00;;;;5087100;28;20194;-75
2021/03/06 06:28:04;;;;;;;2.95;1.15;;;;;4.60;103289.00;;;;5084752;28;20217;-75
2021/03/06 06:30:31;;;;;;;2.60;1.10;;;;;4.60;103292.00;;;;5087712;28;20194;-76
2021/03/06 06:32:59;;;;;;;2.95;1.35;;;;;4.60;103295.00;;;;5087326;28;20624;-76
2021/03/06 06:35:26;;;;;;;1.92;1.48;;;;;4.60;103301.00;;;;5088507;28;20243;-76
2021/03/06 06:37:59;;;;;;;3.53;1.33;;;;;4.60;103298.00;;;;5085827;28;20198;-76
2021/03/06 06:40:28;;;;;;;4.28;1.42;;;;;4.60;103303.00;;;;5079118;28;20194;-76
2021/03/06 06:42:56;;;;;;;6.13;1.77;;;;;4.60;103306.00;;;;5087174;28;20937;-75
2021/03/06 06:45:23;;;;;;;3.15;1.52;;;;;4.70;103306.00;;;;5087567;28;20247;-75
2021/03/06 06:47:53;;;;;;;4.38;1.55;;;;;4.70;103313.00;;;;5083998;28;20229;-76
2021/03/06 06:50:30;;;;;;;3.70;1.48;;;;;4.60;103315.00;;;;5087854;28;20560;-76
2021/03/06 06:52:58;;;;;;;4.32;1.35;;;;;4.70;103315.00;;;;5089304;28;20559;-76
2021/03/06 06:55:35;;;;;;;3.30;1.17;;;;;4.70;103325.00;;;;5090363;28;20218;-76
2021/03/06 06:58:02;;;;;;;2.88;2.00;;;;;4.80;103325.00;;;;5089546;28;20227;-76
2021/03/06 07:00:31;;;;;;;5.05;1.95;;;;;4.80;103326.00;;;;5091134;28;20194;-76
2021/03/06 07:02:59;;;;;;;3.15;1.67;;;;;4.90;103325.00;;;;5085902;28;20201;-76
2021/03/06 07:05:28;;;;;;;3.78;1.58;;;;;4.90;103330.00;;;;5091039;28;20190;-76
2021/03/06 07:07:57;;;;;;;2.15;1.20;;;;;4.90;103326.00;;;;5091998;28;20190;-76
2021/03/06 07:10:24;;;;;;;4.03;1.60;;;;;5.00;103338.00;;;;5091335;28;20198;-76
2021/03/06 07:12:58;;;;;;;4.85;1.48;;;;;5.00;103343.00;;;;5090380;28;20285;-76
2021/03/06 07:15:27;;;;;;;2.22;1.33;;;;;5.10;103341.00;;;;5088908;28;20226;-77
2021/03/06 07:17:56;;;;;;;3.35;1.48;;;;;5.10;103348.00;;;;5078849;28;20202;-77
2021/03/06 07:20:35;;;;;;;3.50;1.65;;;;;5.10;103347.00;;;;5090534;28;20692;-77
2021/03/06 07:23:17;;;;;;;2.42;1.60;;;;;5.20;103334.00;;;;5089441;28;20576;-77
2021/03/06 07:25:45;;;;;;;2.85;1.48;;;;;5.30;103340.00;;;;5090042;28;20202;-77
2021/03/06 07:28:12;;;;;;;5.70;1.67;;;;;5.30;103342.00;;;;5091075;28;20252;-77
2021/03/06 07:30:38;;;;;;;1.88;1.63;;;;;5.40;103337.00;;;;5089896;28;20628;-77
2021/03/06 07:33:07;;;;;;;3.05;1.30;;;;;5.50;103338.00;;;;5081305;28;20291;-77
2021/03/06 07:35:36;;;;;;;4.38;2.05;;;;;5.50;103347.00;;;;5085997;28;20219;-77
2021/03/06 07:38:05;;;;;;;3.60;1.30;;;;;5.60;103350.00;;;;5081627;28;20293;-77
2021/03/06 07:40:37;;;;;;;3.17;1.90;;;;;5.70;103351.00;;;;5081551;28;20198;-77
2021/03/06 07:43:12;;;;;;;2.40;1.63;;;;;5.70;103348.00;;;;5080415;28;20191;-76
2021/03/06 07:45:45;;;;;;;3.92;1.50;;;;;5.80;103349.00;;;;5078714;28;20692;-78
2021/03/06 07:48:15;;;;;;;4.72;1.58;;;;;5.90;103346.00;;;;5077588;28;20236;-77
2021/03/06 07:50:44;;;;;;;2.60;1.70;;;;;6.00;103347.00;;;;5082672;28;20640;-78
2021/03/06 07:53:12;;;;;;;2.90;1.58;;;;;6.00;103346.00;;;;5088823;28;20187;-78
2021/03/06 07:55:40;;;;;;;1.55;1.20;;;;;6.10;103351.00;;;;5088092;28;20237;-77
2021/03/06 07:58:09;;;;;;;4.25;1.98;;;;;6.20;103346.00;;;;5088782;28;20190;-77
2021/03/06 08:00:45;;;;;;;4.57;2.05;;;;;6.20;103340.00;;;;5087421;28;20198;-77
2021/03/06 08:03:38;;;;;;;3.00;1.77;;;;;6.30;103339.00;;;;5087839;28;20232;-78
2021/03/06 08:06:17;;;;;;;3.80;2.00;;;;;6.40;103345.00;;;;5087895;28;20578;-79
2021/03/06 08:08:58;;;;;;;2.65;1.70;;;;;6.50;103355.00;;;;5070784;28;20218;-78
2021/03/06 08:11:35;;;;;;;3.28;1.73;;;;;6.60;103352.00;;;;5083133;28;20194;-78
2021/03/06 08:14:05;;;;;;;4.15;1.80;;;;;6.70;103346.00;;;;5080179;28;20251;-78
2021/03/06 08:16:41;;;;;;;3.00;2.20;;;;;6.80;103348.00;;;;5079940;28;20214;-78
2021/03/06 08:19:28;;;;;;;3.05;1.88;;;;;6.90;103350.00;;;;5075437;28;20195;-78
2021/03/06 08:21:56;;;;;;;2.92;1.77;;;;;7.00;103343.00;;;;5077974;28;20215;-77
2021/03/06 08:24:27;;;;;;;2.75;1.88;;;;;7.20;103349.00;;;;5075405;28;20210;-77
2021/03/06 08:27:17;;;;;;;5.32;2.78;;;;;7.20;103357.00;;;;5075957;28;20663;-77
2021/03/06 08:29:44;;;;;;;4.35;2.65;;;;;7.40;103346.00;;;;5077510;28;20671;-77
2021/03/06 08:32:13;;;;;;;4.50;1.98;;;;;7.50;103344.00;;;;5075897;28;20198;-78
2021/03/06 08:34:41;;;;;;;4.60;1.95;;;;;7.60;103351.00;;;;5075337;28;20225;-77
2021/03/06 08:37:27;;;;;;;1.77;1.08;;;;;7.70;103347.00;;;;5077132;28;20631;-78
2021/03/06 08:39:57;;;;;;;2.20;1.10;;;;;7.80;103348.00;;;;5075496;28;20233;-78
2021/03/06 08:42:27;;;;;;;1.52;0.73;;;;;7.90;103347.00;;;;5075869;28;20276;-79
2021/03/06 08:44:58;;;;;;;1.75;0.82;;;;;8.00;103358.00;;;;5084393;28;20198;-79
2021/03/06 08:47:27;;;;;;;1.48;0.90;;;;;8.10;103355.00;;;;5089397;28;20230;-78
2021/03/06 08:49:55;;;;;;;1.45;0.68;;;;;8.30;103355.00;;;;5077124;28;20240;-79
2021/03/06 08:52:22;;;;;;;1.20;0.50;;;;;8.40;103356.00;;;;5080401;28;20684;-78
2021/03/06 08:54:49;;;;;;;2.17;0.45;;;;;8.50;103350.00;;;;5083072;28;20276;-78
2021/03/06 08:57:24;;;;;;;1.75;0.60;;;;;8.50;103350.00;;;;5081578;28;20202;-78
2021/03/06 08:59:52;;;;;;;1.02;0.77;;;;;8.70;103353.00;;;;5076909;28;20209;-77
2021/03/06 09:02:21;;;;;;;1.50;0.40;;;;;8.80;103361.00;;;;5074831;28;20203;-78
2021/03/06 09:04:58;;;;;;;0.90;0.43;;;;;8.90;103360.00;;;;5077541;28;21057;-78
2021/03/06 09:07:27;;;;;;;2.78;0.73;;;;;9.00;103368.00;;;;5078121;28;20664;-78
2021/03/06 09:09:54;;;;;;;2.42;0.50;;;;;9.10;103364.00;;;;5085400;28;20268;-78
2021/03/06 09:12:21;;;;;;;1.35;0.52;;;;;9.20;103369.00;;;;5077568;28;20230;-78
2021/03/06 09:14:48;;;;;;;3.05;0.45;;;;;9.30;103370.00;;;;5076307;28;20218;-77
2021/03/06 09:17:15;;;;;;;2.60;0.40;;;;;9.40;103371.00;;;;5089354;28;20202;-78
2021/03/06 09:19:42;;;;;;;3.03;0.68;;;;;9.50;103379.00;;;;5087869;28;20202;-78
2021/03/06 09:22:10;;;;;;;1.15;0.60;;;;;9.60;103374.00;;;;5086899;28;20194;-77
2021/03/06 09:24:45;;;;;;;2.05;0.50;;;;;9.60;103377.00;;;;5086500;28;20194;-78
2021/03/06 09:27:16;;;;;;;1.52;0.47;;;;;9.80;103372.00;;;;5086588;28;20251;-78
2021/03/06 09:29:45;;;;;;;2.88;0.80;;;;;9.90;103381.00;;;;5087857;28;20206;-78
2021/03/06 09:32:13;;;;;;;1.27;0.50;;;;;10.00;103375.00;;;;5088289;28;20206;-78
2021/03/06 09:34:42;;;;;;;3.05;0.30;;;;;10.10;103377.00;;;;5088977;28;20194;-78
2021/03/06 09:37:15;;;;;;;1.77;0.45;;;;;10.20;103371.00;;;;5088192;28;20198;-78
2021/03/06 09:39:42;;;;;;;1.88;0.40;;;;;10.40;103376.00;;;;5088235;28;20198;-79
2021/03/06 09:42:09;;;;;;;2.13;0.70;;;;;10.50;103370.00;;;;5079239;28;20194;-78
2021/03/06 09:44:36;;;;;;;1.95;0.70;;;;;10.60;103369.00;;;;5089383;28;20198;-78
2021/03/06 09:47:03;;;;;;;1.77;0.50;;;;;10.70;103376.00;;;;5088296;28;20639;-75
2021/03/06 09:49:37;;;;;;;3.22;0.47;;;;;10.70;103364.00;;;;5076944;28;20216;-76
2021/03/06 09:52:04;;;;;;;4.00;0.35;;;;;10.90;103366.00;;;;5085043;28;20195;-75
2021/03/06 09:54:36;;;;;;;1.40;0.30;;;;;10.90;103370.00;;;;5087673;28;20202;-79
2021/03/06 09:57:05;;;;;;;5.13;0.70;;;;;11.10;103368.00;;;;5088738;28;20194;-79
2021/03/06 09:59:37;;;;;;;1.40;0.52;;;;;11.10;103360.00;;;;5088393;28;20251;-79
2021/03/06 10:02:04;;;;;;;2.00;0.43;;;;;11.20;103363.00;;;;5088686;28;20205;-78
2021/03/06 10:04:31;;;;;;;0.63;0.25;;;;;11.30;103357.00;;;;5088938;28;20207;-79
2021/03/06 10:07:00;;;;;;;1.40;0.30;;;;;11.40;103353.00;;;;5081315;28;20203;-79
2021/03/06 10:09:31;;;;;;;0.80;0.30;;;;;11.50;103352.00;;;;5069159;28;20203;-78
2021/03/06 10:12:04;;;;;;;1.55;0.20;;;;;11.60;103346.00;;;;5082254;28;20198;-79
2021/03/06 10:14:31;;;;;;;0.47;0.20;;;;;11.70;103345.00;;;;5088665;28;20281;-79
2021/03/06 10:17:00;;;;;;;0.88;0.30;;;;;11.70;103350.00;;;;5088273;28;20215;-78
2021/03/06 10:19:28;;;;;;;0.20;0.10;;;;;11.80;103351.00;;;;5088240;28;20198;-78
2021/03/06 10:22:05;;;;;;;2.53;0.20;;;;;11.80;103353.00;;;;5088306;28;20205;-78
2021/03/06 10:24:32;;;;;;;1.65;0.47;;;;;12.00;103354.00;;;;5087258;28;20625;-78
2021/03/06 10:27:00;;;;;;;0.57;0.45;;;;;12.10;103346.00;;;;5088331;28;20225;-78
2021/03/06 10:29:28;;;;;;;2.03;1.13;;;;;12.20;103359.00;;;;5088417;28;20221;-79
2021/03/06 10:31:56;;;;;;;2.47;1.45;;;;;12.20;103348.00;;;;5088474;28;20198;-80
2021/03/06 10:34:25;;;;;;;1.33;0.50;;;;;12.20;103354.00;;;;5088536;28;20194;-80
2021/03/06 10:37:14;;;;;;;0.40;0.40;;;;;12.20;103351.00;;;;5087231;28;20232;-79
2021/03/06 10:39:52;;;;;;;0.75;0.40;;;;;12.30;103345.00;;;;5088346;28;20201;-79
2021/03/06 10:42:18;;;;;;;1.38;0.40;;;;;12.50;103351.00;;;;5087662;28;20238;-80
2021/03/06 10:44:45;;;;;;;2.92;2.13;;;;;12.50;103353.00;;;;5088349;28;20575;-80
2021/03/06 10:47:12;;;;;;;1.45;0.98;;;;;12.50;103349.00;;;;5087334;28;20237;-79
2021/03/06 10:49:40;;;;;;;1.25;0.93;;;;;12.50;103346.00;;;;5087836;28;20201;-78
2021/03/06 10:52:11;;;;;;;1.95;1.00;;;;;12.60;103338.00;;;;5087590;28;20202;-77
2021/03/06 10:54:52;;;;;;;1.02;0.70;;;;;12.60;103339.00;;;;5088416;28;20574;-79
2021/03/06 10:57:18;;;;;;;0.70;0.40;;;;;12.70;103338.00;;;;5068557;28;20218;-76
2021/03/06 10:59:45;;;;;;;1.58;0.60;;;;;12.80;103339.00;;;;5071760;28;20198;-76
2021/03/06 11:02:28;;;;;;;1.15;0.90;;;;;12.70;103329.00;;;;5077916;28;20211;-78
2021/03/06 11:05:13;;;;;;;0.95;0.68;;;;;12.90;103329.00;;;;5081954;28;20191;-77
2021/03/06 11:07:40;;;;;;;3.00;1.67;;;;;12.90;103330.00;;;;5084981;28;20733;-79
2021/03/06 11:10:08;;;;;;;1.60;1.20;;;;;12.80;103324.00;;;;5088505;28;20206;-79
2021/03/06 11:12:35;;;;;;;2.00;1.30;;;;;12.80;103318.00;;;;5087125;28;20202;-78
2021/03/06 11:15:10;;;;;;;1.35;0.80;;;;;12.80;103320.00;;;;5086120;28;20214;-79
2021/03/06 11:17:38;;;;;;;3.30;0.88;;;;;12.90;103317.00;;;;5087297;28;20683;-79
2021/03/06 11:20:07;;;;;;;1.67;0.98;;;;;12.90;103319.00;;;;5085998;28;20187;-78
2021/03/06 11:22:34;;;;;;;1.40;0.68;;;;;13.00;103325.00;;;;5085533;28;20217;-76
2021/03/06 11:25:01;;;;;;;1.73;0.73;;;;;13.10;103310.00;;;;5082796;28;20204;-76
2021/03/06 11:27:28;;;;;;;1.90;1.02;;;;;13.10;103308.00;;;;5088388;28;20201;-77
2021/03/06 11:29:55;;;;;;;2.58;1.25;;;;;13.20;103301.00;;;;5087800;28;20236;-77
2021/03/06 11:32:23;;;;;;;4.35;2.38;;;;;13.30;103307.00;;;;5088378;28;20190;-77
2021/03/06 11:34:50;;;;;;;3.28;1.58;;;;;13.40;103297.00;;;;5085715;28;20195;-77
2021/03/06 11:37:17;;;;;;;2.92;1.80;;;;;13.50;103305.00;;;;5084614;28;20190;-77
2021/03/06 11:39:43;;;;;;;1.10;0.85;;;;;13.60;103295.00;;;;5082210;28;20206;-78
2021/03/06 11:42:10;;;;;;;2.53;0.80;;;;;13.60;103297.00;;;;5081506;28;20633;-77
2021/03/06 11:44:38;;;;;;;1.75;0.73;;;;;13.70;103289.00;;;;5079844;28;20195;-76
2021/03/06 11:47:05;;;;;;;1.08;0.57;;;;;13.80;103296.00;;;;5089985;28;20222;-76
2021/03/06 11:49:32;;;;;;;1.38;0.60;;;;;13.80;103296.00;;;;5088787;28;20194;-77
2021/03/06 11:51:59;;;;;;;0.50;0.40;;;;;13.80;103288.00;;;;5089124;28;20190;-78
2021/03/06 11:54:25;;;;;;;0.85;0.55;;;;;13.90;103284.00;;;;5088627;28;20209;-77
2021/03/06 11:56:52;;;;;;;2.10;0.60;;;;;14.00;103279.00;;;;5090922;28;20222;-76
2021/03/06 11:59:19;;;;;;;1.48;0.50;;;;;14.00;103276.00;;;;5090975;28;20691;-78
2021/03/06 12:01:46;;;;;;;1.00;0.47;;;;;14.10;103280.00;;;;5089534;28;20205;-78
2021/03/06 12:04:13;;;;;;;0.93;0.30;;;;;14.10;103267.00;;;;5091001;28;20197;-77
2021/03/06 12:06:40;;;;;;;2.28;0.60;;;;;14.10;103265.00;;;;5079474;28;20203;-78
2021/03/06 12:09:07;;;;;;;1.38;0.43;;;;;14.20;103248.00;;;;5081775;28;20198;-77
2021/03/06 12:11:34;;;;;;;0.30;0.25;;;;;14.20;103244.00;;;;5089547;28;20330;-76
2021/03/06 12:14:00;;;;;;;0.98;0.30;;;;;14.30;103254.00;;;;5087590;28;20190;-77
2021/03/06 12:16:28;;;;;;;1.30;0.80;;;;;14.30;103243.00;;;;5083787;28;20287;-75
2021/03/06 12:18:56;;;;;;;1.55;1.23;;;;;14.30;103251.00;;;;5085863;28;20194;-77
2021/03/06 12:21:23;;;;;;;1.33;0.60;;;;;14.30;103239.00;;;;5088271;28;20248;-78
2021/03/06 12:23:49;;;;;;;1.20;0.50;;;;;14.30;103235.00;;;;5084579;28;20697;-79
2021/03/06 12:26:16;;;;;;;1.77;0.43;;;;;14.30;103223.00;;;;5081848;28;20202;-79